sensor_id;sensor_type;location;lat;lon;timestamp;temperature;humidity
36594;DHT22;22603;47.900;8.146;2022-11-11T00:00:43;2.60;99.90
36594;DHT22;22603;47.900;8.146;2022-11-11T00:03:32;2.60;99.90
36594;DHT22;22603;47.900;8.146;2022-11-11T00:06:19;2.60;99.90
36594;DHT22;22603;47.900;8.146;2022-11-11T00:09:06;2.50;99.90
36594;DHT22;22603;47.900;8.146;2022-11-11T00:11:54;2.60;99.90
36594;DHT22;22603;47.900;8.146;2022-11-11T00:14:41;2.60;99.90
36594;DHT22;22603;47.900;8.146;2022-11-11T00:17:28;2.50;99.90
36594;DHT22;22603;47.900;8.146;2022-11-11T00:20:35;2.40;99.90
36594;DHT22;22603;47.900;8.146;2022-11-11T00:23:39;2.40;99.90
36594;DHT22;22603;47.900;8.146;2022-11-11T00:26:44;2.40;99.90
36594;DHT22;22603;47.900;8.146;2022-11-11T00:29:31;2.40;99.90
36594;DHT22;22603;47.900;8.146;2022-11-11T00:32:18;2.40;99.90
36594;DHT22;22603;47.900;8.146;2022-11-11T00:35:16;2.50;99.90
36594;DHT22;22603;47.900;8.146;2022-11-11T00:38:21;2.50;99.90
36594;DHT22;22603;47.900;8.146;2022-11-11T00:41:26;2.40;99.90
36594;DHT22;22603;47.900;8.146;2022-11-11T00:44:13;2.40;99.90
36594;DHT22;22603;47.900;8.146;2022-11-11T00:47:01;2.40;99.90
36594;DHT22;22603;47.900;8.146;2022-11-11T00:50:09;2.40;99.90
36594;DHT22;22603;47.900;8.146;2022-11-11T00:53:15;2.40;99.90
36594;DHT22;22603;47.900;8.146;2022-11-11T00:56:11;2.40;99.90
36594;DHT22;22603;47.900;8.146;2022-11-11T00:58:59;2.50;99.90
36594;DHT22;22603;47.900;8.146;2022-11-11T01:01:46;2.40;99.90
36594;DHT22;22603;47.900;8.146;2022-11-11T01:04:33;2.40;99.90
36594;DHT22;22603;47.900;8.146;2022-11-11T01:07:21;2.40;99.90
36594;DHT22;22603;47.900;8.146;2022-11-11T01:10:08;2.40;99.90
36594;DHT22;22603;47.900;8.146;2022-11-11T01:12:57;2.40;99.90
36594;DHT22;22603;47.900;8.146;2022-11-11T01:16:00;2.30;99.90
36594;DHT22;22603;47.900;8.146;2022-11-11T01:18:49;2.20;99.90
36594;DHT22;22603;47.900;8.146;2022-11-11T01:21:36;2.10;99.90
36594;DHT22;22603;47.900;8.146;2022-11-11T01:24:23;2.10;99.90
36594;DHT22;22603;47.900;8.146;2022-11-11T01:27:10;2.00;99.90
36594;DHT22;22603;47.900;8.146;2022-11-11T01:29:59;2.00;99.90
36594;DHT22;22603;47.900;8.146;2022-11-11T01:32:46;1.90;99.90
36594;DHT22;22603;47.900;8.146;2022-11-11T01:35:37;1.90;99.90
36594;DHT22;22603;47.900;8.146;2022-11-11T01:38:24;1.80;99.90
36594;DHT22;22603;47.900;8.146;2022-11-11T01:41:15;1.80;99.90
36594;DHT22;22603;47.900;8.146;2022-11-11T01:44:40;1.60;99.90
36594;DHT22;22603;47.900;8.146;2022-11-11T01:47:29;1.60;99.90
36594;DHT22;22603;47.900;8.146;2022-11-11T01:50:58;1.60;99.90
36594;DHT22;22603;47.900;8.146;2022-11-11T01:53:48;1.60;99.90
36594;DHT22;22603;47.900;8.146;2022-11-11T01:56:38;1.60;99.90
36594;DHT22;22603;47.900;8.146;2022-11-11T01:59:27;1.50;99.90
36594;DHT22;22603;47.900;8.146;2022-11-11T02:02:21;1.50;99.90
36594;DHT22;22603;47.900;8.146;2022-11-11T02:05:11;1.40;99.90
36594;DHT22;22603;47.900;8.146;2022-11-11T02:08:19;1.40;99.90
36594;DHT22;22603;47.900;8.146;2022-11-11T02:11:20;1.40;99.90
36594;DHT22;22603;47.900;8.146;2022-11-11T02:14:21;1.40;99.90
36594;DHT22;22603;47.900;8.146;2022-11-11T02:17:26;1.30;99.90
36594;DHT22;22603;47.900;8.146;2022-11-11T02:20:18;1.30;99.90
36594;DHT22;22603;47.900;8.146;2022-11-11T02:23:09;1.30;99.90
36594;DHT22;22603;47.900;8.146;2022-11-11T02:26:00;1.30;99.90
36594;DHT22;22603;47.900;8.146;2022-11-11T02:28:48;1.30;99.90
36594;DHT22;22603;47.900;8.146;2022-11-11T02:31:36;1.30;99.90
36594;DHT22;22603;47.900;8.146;2022-11-11T02:34:28;1.20;99.90
36594;DHT22;22603;47.900;8.146;2022-11-11T02:37:18;1.20;99.90
36594;DHT22;22603;47.900;8.146;2022-11-11T02:40:07;1.20;99.90
36594;DHT22;22603;47.900;8.146;2022-11-11T02:42:55;1.10;99.90
36594;DHT22;22603;47.900;8.146;2022-11-11T02:45:42;1.10;99.90
36594;DHT22;22603;47.900;8.146;2022-11-11T02:48:29;1.10;99.90
36594;DHT22;22603;47.900;8.146;2022-11-11T02:51:16;1.10;99.90
36594;DHT22;22603;47.900;8.146;2022-11-11T02:54:05;1.00;99.90
36594;DHT22;22603;47.900;8.146;2022-11-11T02:56:52;1.10;99.90
36594;DHT22;22603;47.900;8.146;2022-11-11T02:59:57;1.10;99.90
36594;DHT22;22603;47.900;8.146;2022-11-11T03:02:45;1.10;99.90
36594;DHT22;22603;47.900;8.146;2022-11-11T03:05:32;1.10;99.90
36594;DHT22;22603;47.900;8.146;2022-11-11T03:08:19;1.10;99.90
36594;DHT22;22603;47.900;8.146;2022-11-11T03:11:06;1.10;99.90
36594;DHT22;22603;47.900;8.146;2022-11-11T03:13:54;1.10;99.90
36594;DHT22;22603;47.900;8.146;2022-11-11T03:16:43;1.00;99.90
36594;DHT22;22603;47.900;8.146;2022-11-11T03:19:48;1.00;99.90
36594;DHT22;22603;47.900;8.146;2022-11-11T03:22:35;1.00;99.90
36594;DHT22;22603;47.900;8.146;2022-11-11T03:25:41;1.00;99.90
36594;DHT22;22603;47.900;8.146;2022-11-11T03:28:28;0.90;99.90
36594;DHT22;22603;47.900;8.146;2022-11-11T03:31:15;0.80;99.90
36594;DHT22;22603;47.900;8.146;2022-11-11T03:34:04;0.90;99.90
36594;DHT22;22603;47.900;8.146;2022-11-11T03:37:07;0.90;99.90
36594;DHT22;22603;47.900;8.146;2022-11-11T03:40:12;0.90;99.90
36594;DHT22;22603;47.900;8.146;2022-11-11T03:42:59;0.90;99.90
36594;DHT22;22603;47.900;8.146;2022-11-11T03:45:50;0.90;99.90
36594;DHT22;22603;47.900;8.146;2022-11-11T03:48:37;0.90;99.90
36594;DHT22;22603;47.900;8.146;2022-11-11T03:51:25;0.90;99.90
36594;DHT22;22603;47.900;8.146;2022-11-11T03:54:12;0.90;99.90
36594;DHT22;22603;47.900;8.146;2022-11-11T03:56:59;0.80;99.90
36594;DHT22;22603;47.900;8.146;2022-11-11T03:59:59;0.80;99.90
36594;DHT22;22603;47.900;8.146;2022-11-11T04:02:47;0.80;99.90
36594;DHT22;22603;47.900;8.146;2022-11-11T04:05:51;0.80;99.90
36594;DHT22;22603;47.900;8.146;2022-11-11T04:08:57;0.70;99.90
36594;DHT22;22603;47.900;8.146;2022-11-11T04:12:01;0.70;99.90
36594;DHT22;22603;47.900;8.146;2022-11-11T04:14:48;0.60;99.90
36594;DHT22;22603;47.900;8.146;2022-11-11T04:17:52;0.60;99.90
36594;DHT22;22603;47.900;8.146;2022-11-11T04:20:44;0.60;99.90
36594;DHT22;22603;47.900;8.146;2022-11-11T04:23:48;0.50;99.90
36594;DHT22;22603;47.900;8.146;2022-11-11T04:26:36;0.50;99.90
36594;DHT22;22603;47.900;8.146;2022-11-11T04:29:23;0.50;99.90
36594;DHT22;22603;47.900;8.146;2022-11-11T04:32:18;0.40;99.90
36594;DHT22;22603;47.900;8.146;2022-11-11T04:35:23;0.20;99.90
36594;DHT22;22603;47.900;8.146;2022-11-11T04:38:11;0.40;99.90
36594;DHT22;22603;47.900;8.146;2022-11-11T04:41:15;0.40;99.90
36594;DHT22;22603;47.900;8.146;2022-11-11T04:44:04;0.40;99.90
36594;DHT22;22603;47.900;8.146;2022-11-11T04:47:09;0.40;99.90
36594;DHT22;22603;47.900;8.146;2022-11-11T04:49:56;0.40;99.90
36594;DHT22;22603;47.900;8.146;2022-11-11T04:52:51;0.40;99.90
36594;DHT22;22603;47.900;8.146;2022-11-11T04:55:39;0.40;99.90
36594;DHT22;22603;47.900;8.146;2022-11-11T04:58:43;0.40;99.90
36594;DHT22;22603;47.900;8.146;2022-11-11T05:01:52;0.40;99.90
36594;DHT22;22603;47.900;8.146;2022-11-11T05:04:56;0.30;99.90
36594;DHT22;22603;47.900;8.146;2022-11-11T05:07:43;0.30;99.90
36594;DHT22;22603;47.900;8.146;2022-11-11T05:10:48;0.30;99.90
36594;DHT22;22603;47.900;8.146;2022-11-11T05:13:35;0.30;99.90
36594;DHT22;22603;47.900;8.146;2022-11-11T05:16:42;0.30;99.90
36594;DHT22;22603;47.900;8.146;2022-11-11T05:19:47;0.40;99.90
36594;DHT22;22603;47.900;8.146;2022-11-11T05:22:52;0.40;99.90
36594;DHT22;22603;47.900;8.146;2022-11-11T05:25:38;0.40;99.90
36594;DHT22;22603;47.900;8.146;2022-11-11T05:28:25;0.40;99.90
36594;DHT22;22603;47.900;8.146;2022-11-11T05:31:12;0.40;99.90
36594;DHT22;22603;47.900;8.146;2022-11-11T05:33:58;0.40;99.90
36594;DHT22;22603;47.900;8.146;2022-11-11T05:36:47;0.40;99.90
36594;DHT22;22603;47.900;8.146;2022-11-11T05:39:34;0.50;99.90
36594;DHT22;22603;47.900;8.146;2022-11-11T05:42:21;0.50;99.90
36594;DHT22;22603;47.900;8.146;2022-11-11T05:45:08;0.50;99.90
36594;DHT22;22603;47.900;8.146;2022-11-11T05:48:00;0.40;99.90
36594;DHT22;22603;47.900;8.146;2022-11-11T05:50:47;0.40;99.90
36594;DHT22;22603;47.900;8.146;2022-11-11T05:53:35;0.40;99.90
36594;DHT22;22603;47.900;8.146;2022-11-11T05:56:22;0.40;99.90
36594;DHT22;22603;47.900;8.146;2022-11-11T05:59:10;0.40;99.90
36594;DHT22;22603;47.900;8.146;2022-11-11T06:01:57;0.40;99.90
36594;DHT22;22603;47.900;8.146;2022-11-11T06:04:44;0.40;99.90
36594;DHT22;22603;47.900;8.146;2022-11-11T06:07:31;0.50;99.90
36594;DHT22;22603;47.900;8.146;2022-11-11T06:10:20;0.50;99.90
36594;DHT22;22603;47.900;8.146;2022-11-11T06:13:16;0.50;99.90
36594;DHT22;22603;47.900;8.146;2022-11-11T06:16:04;0.50;99.90
36594;DHT22;22603;47.900;8.146;2022-11-11T06:18:51;0.50;99.90
36594;DHT22;22603;47.900;8.146;2022-11-11T06:21:38;0.50;99.90
36594;DHT22;22603;47.900;8.146;2022-11-11T06:24:45;0.50;99.90
36594;DHT22;22603;47.900;8.146;2022-11-11T06:27:53;0.60;99.90
36594;DHT22;22603;47.900;8.146;2022-11-11T06:30:40;0.70;99.90
36594;DHT22;22603;47.900;8.146;2022-11-11T06:33:35;0.70;99.90
36594;DHT22;22603;47.900;8.146;2022-11-11T06:36:23;0.80;99.90
36594;DHT22;22603;47.900;8.146;2022-11-11T06:39:10;0.90;99.90
36594;DHT22;22603;47.900;8.146;2022-11-11T06:41:56;0.80;99.90
36594;DHT22;22603;47.900;8.146;2022-11-11T06:44:46;1.00;99.90
36594;DHT22;22603;47.900;8.146;2022-11-11T06:47:33;1.10;99.90
36594;DHT22;22603;47.900;8.146;2022-11-11T06:50:20;1.10;99.90
36594;DHT22;22603;47.900;8.146;2022-11-11T06:53:10;1.20;99.90
36594;DHT22;22603;47.900;8.146;2022-11-11T06:55:57;1.30;99.90
36594;DHT22;22603;47.900;8.146;2022-11-11T06:58:44;1.30;99.90
36594;DHT22;22603;47.900;8.146;2022-11-11T07:01:33;1.40;99.90
36594;DHT22;22603;47.900;8.146;2022-11-11T07:04:19;1.40;99.90
36594;DHT22;22603;47.900;8.146;2022-11-11T07:07:06;1.60;99.90
36594;DHT22;22603;47.900;8.146;2022-11-11T07:09:54;1.60;99.90
36594;DHT22;22603;47.900;8.146;2022-11-11T07:12:41;1.70;99.90
36594;DHT22;22603;47.900;8.146;2022-11-11T07:15:28;1.70;99.90
36594;DHT22;22603;47.900;8.146;2022-11-11T07:18:17;1.80;99.90
36594;DHT22;22603;47.900;8.146;2022-11-11T07:21:04;1.90;99.90
36594;DHT22;22603;47.900;8.146;2022-11-11T07:23:52;2.10;99.90
36594;DHT22;22603;47.900;8.146;2022-11-11T07:26:39;2.20;99.90
36594;DHT22;22603;47.900;8.146;2022-11-11T07:29:26;2.20;99.90
36594;DHT22;22603;47.900;8.146;2022-11-11T07:32:14;2.30;99.90
36594;DHT22;22603;47.900;8.146;2022-11-11T07:35:04;2.30;99.90
36594;DHT22;22603;47.900;8.146;2022-11-11T07:37:51;2.30;99.90
36594;DHT22;22603;47.900;8.146;2022-11-11T07:40:38;2.50;99.90
36594;DHT22;22603;47.900;8.146;2022-11-11T07:43:25;2.70;99.90
36594;DHT22;22603;47.900;8.146;2022-11-11T07:46:12;2.80;99.90
36594;DHT22;22603;47.900;8.146;2022-11-11T07:48:59;2.90;99.90
36594;DHT22;22603;47.900;8.146;2022-11-11T07:51:47;3.00;99.90
36594;DHT22;22603;47.900;8.146;2022-11-11T07:54:34;3.10;99.90
36594;DHT22;22603;47.900;8.146;2022-11-11T07:57:22;3.20;99.90
36594;DHT22;22603;47.900;8.146;2022-11-11T08:00:09;3.40;99.90
36594;DHT22;22603;47.900;8.146;2022-11-11T08:02:57;3.50;99.90
36594;DHT22;22603;47.900;8.146;2022-11-11T08:05:49;3.60;99.90
36594;DHT22;22603;47.900;8.146;2022-11-11T08:08:38;3.80;99.90
36594;DHT22;22603;47.900;8.146;2022-11-11T08:11:25;4.00;99.90
36594;DHT22;22603;47.900;8.146;2022-11-11T08:14:30;4.20;99.90
36594;DHT22;22603;47.900;8.146;2022-11-11T08:17:17;4.50;99.90
36594;DHT22;22603;47.900;8.146;2022-11-11T08:20:05;4.50;99.90
36594;DHT22;22603;47.900;8.146;2022-11-11T08:22:52;4.40;99.90
36594;DHT22;22603;47.900;8.146;2022-11-11T08:26:04;4.80;99.90
36594;DHT22;22603;47.900;8.146;2022-11-11T08:28:52;4.70;99.90
36594;DHT22;22603;47.900;8.146;2022-11-11T08:31:39;4.70;99.90
36594;DHT22;22603;47.900;8.146;2022-11-11T08:34:26;5.00;99.90
36594;DHT22;22603;47.900;8.146;2022-11-11T08:37:30;5.40;99.90
36594;DHT22;22603;47.900;8.146;2022-11-11T08:40:30;5.90;99.90
36594;DHT22;22603;47.900;8.146;2022-11-11T08:43:19;6.50;99.90
36594;DHT22;22603;47.900;8.146;2022-11-11T08:46:08;6.30;99.90
36594;DHT22;22603;47.900;8.146;2022-11-11T08:48:56;6.40;99.90
36594;DHT22;22603;47.900;8.146;2022-11-11T08:51:44;7.20;99.90
36594;DHT22;22603;47.900;8.146;2022-11-11T08:54:32;7.60;99.90
36594;DHT22;22603;47.900;8.146;2022-11-11T08:57:19;7.50;99.90
36594;DHT22;22603;47.900;8.146;2022-11-11T09:00:08;7.90;99.90
36594;DHT22;22603;47.900;8.146;2022-11-11T09:03:00;8.00;99.90
36594;DHT22;22603;47.900;8.146;2022-11-11T09:05:47;8.50;99.90
36594;DHT22;22603;47.900;8.146;2022-11-11T09:08:34;8.60;99.90
36594;DHT22;22603;47.900;8.146;2022-11-11T09:11:21;8.70;99.90
36594;DHT22;22603;47.900;8.146;2022-11-11T09:14:08;9.00;99.90
36594;DHT22;22603;47.900;8.146;2022-11-11T09:16:56;8.80;99.90
36594;DHT22;22603;47.900;8.146;2022-11-11T09:19:43;8.50;99.90
36594;DHT22;22603;47.900;8.146;2022-11-11T09:22:30;8.60;99.90
36594;DHT22;22603;47.900;8.146;2022-11-11T09:25:18;8.60;99.90
36594;DHT22;22603;47.900;8.146;2022-11-11T09:28:05;8.50;99.90
36594;DHT22;22603;47.900;8.146;2022-11-11T09:30:55;8.50;99.90
36594;DHT22;22603;47.900;8.146;2022-11-11T09:34:09;8.90;99.90
36594;DHT22;22603;47.900;8.146;2022-11-11T09:37:06;9.00;99.90
36594;DHT22;22603;47.900;8.146;2022-11-11T09:39:53;8.90;99.90
36594;DHT22;22603;47.900;8.146;2022-11-11T09:42:46;8.90;99.90
36594;DHT22;22603;47.900;8.146;2022-11-11T09:45:43;9.10;99.90
36594;DHT22;22603;47.900;8.146;2022-11-11T09:48:43;9.10;99.90
36594;DHT22;22603;47.900;8.146;2022-11-11T09:51:42;9.10;99.90
36594;DHT22;22603;47.900;8.146;2022-11-11T09:54:34;8.90;99.90
36594;DHT22;22603;47.900;8.146;2022-11-11T09:57:32;9.00;99.90
36594;DHT22;22603;47.900;8.146;2022-11-11T10:00:22;9.50;99.90
36594;DHT22;22603;47.900;8.146;2022-11-11T10:03:14;9.60;99.90
36594;DHT22;22603;47.900;8.146;2022-11-11T10:06:06;9.80;99.90
36594;DHT22;22603;47.900;8.146;2022-11-11T10:08:58;10.20;99.90
36594;DHT22;22603;47.900;8.146;2022-11-11T10:11:53;10.70;99.90
36594;DHT22;22603;47.900;8.146;2022-11-11T10:14:46;10.70;99.90
36594;DHT22;22603;47.900;8.146;2022-11-11T10:17:41;10.90;99.90
36594;DHT22;22603;47.900;8.146;2022-11-11T10:20:34;11.00;99.90
36594;DHT22;22603;47.900;8.146;2022-11-11T10:23:28;11.00;99.90
36594;DHT22;22603;47.900;8.146;2022-11-11T10:26:20;11.20;99.90
36594;DHT22;22603;47.900;8.146;2022-11-11T10:29:16;11.40;99.90
36594;DHT22;22603;47.900;8.146;2022-11-11T10:32:08;11.60;99.90
36594;DHT22;22603;47.900;8.146;2022-11-11T10:35:11;12.00;99.90
36594;DHT22;22603;47.900;8.146;2022-11-11T10:38:10;12.00;99.90
36594;DHT22;22603;47.900;8.146;2022-11-11T10:41:07;11.50;99.90
36594;DHT22;22603;47.900;8.146;2022-11-11T10:43:59;11.20;99.90
36594;DHT22;22603;47.900;8.146;2022-11-11T10:46:54;11.00;99.90
36594;DHT22;22603;47.900;8.146;2022-11-11T10:49:47;11.00;99.90
36594;DHT22;22603;47.900;8.146;2022-11-11T10:52:40;11.30;99.90
36594;DHT22;22603;47.900;8.146;2022-11-11T10:55:31;11.40;99.90
36594;DHT22;22603;47.900;8.146;2022-11-11T10:58:26;11.50;99.90
36594;DHT22;22603;47.900;8.146;2022-11-11T11:01:21;11.40;99.90
36594;DHT22;22603;47.900;8.146;2022-11-11T11:04:16;11.90;99.90
36594;DHT22;22603;47.900;8.146;2022-11-11T11:07:07;12.00;99.90
36594;DHT22;22603;47.900;8.146;2022-11-11T11:09:58;11.80;99.90
36594;DHT22;22603;47.900;8.146;2022-11-11T11:12:51;12.00;99.90
36594;DHT22;22603;47.900;8.146;2022-11-11T11:15:43;12.30;99.90
36594;DHT22;22603;47.900;8.146;2022-11-11T11:18:34;12.30;99.90
36594;DHT22;22603;47.900;8.146;2022-11-11T11:21:47;12.40;99.90
36594;DHT22;22603;47.900;8.146;2022-11-11T11:24:35;12.20;99.90
36594;DHT22;22603;47.900;8.146;2022-11-11T11:27:28;12.30;99.90
36594;DHT22;22603;47.900;8.146;2022-11-11T11:30:18;12.20;99.90
36594;DHT22;22603;47.900;8.146;2022-11-11T11:33:07;12.30;99.90
36594;DHT22;22603;47.900;8.146;2022-11-11T11:35:56;12.60;99.90
36594;DHT22;22603;47.900;8.146;2022-11-11T11:38:45;12.70;99.90
36594;DHT22;22603;47.900;8.146;2022-11-11T11:41:37;12.60;99.90
36594;DHT22;22603;47.900;8.146;2022-11-11T11:44:25;12.60;99.90
36594;DHT22;22603;47.900;8.146;2022-11-11T11:47:22;12.40;99.90
36594;DHT22;22603;47.900;8.146;2022-11-11T11:50:26;12.30;99.90
36594;DHT22;22603;47.900;8.146;2022-11-11T11:53:29;12.40;99.90
36594;DHT22;22603;47.900;8.146;2022-11-11T11:56:28;12.50;99.90
36594;DHT22;22603;47.900;8.146;2022-11-11T11:59:20;12.50;99.90
36594;DHT22;22603;47.900;8.146;2022-11-11T12:02:26;12.40;99.90
36594;DHT22;22603;47.900;8.146;2022-11-11T12:05:24;12.60;99.90
36594;DHT22;22603;47.900;8.146;2022-11-11T12:08:30;12.60;99.90
36594;DHT22;22603;47.900;8.146;2022-11-11T12:11:28;12.70;99.90
36594;DHT22;22603;47.900;8.146;2022-11-11T12:14:37;12.90;99.90
36594;DHT22;22603;47.900;8.146;2022-11-11T12:17:39;13.10;99.90
36594;DHT22;22603;47.900;8.146;2022-11-11T12:20:31;13.00;99.90
36594;DHT22;22603;47.900;8.146;2022-11-11T12:26:46;12.60;99.90
36594;DHT22;22603;47.900;8.146;2022-11-11T12:29:44;12.60;99.90
36594;DHT22;22603;47.900;8.146;2022-11-11T12:33:04;12.80;99.90
36594;DHT22;22603;47.900;8.146;2022-11-11T12:36:03;12.70;99.90
36594;DHT22;22603;47.900;8.146;2022-11-11T12:38:57;12.50;99.90
36594;DHT22;22603;47.900;8.146;2022-11-11T12:41:58;12.30;99.90
36594;DHT22;22603;47.900;8.146;2022-11-11T12:44:57;12.60;99.90
36594;DHT22;22603;47.900;8.146;2022-11-11T12:47:55;12.80;99.90
36594;DHT22;22603;47.900;8.146;2022-11-11T12:50:48;12.90;99.90
36594;DHT22;22603;47.900;8.146;2022-11-11T12:53:45;13.00;99.90
36594;DHT22;22603;47.900;8.146;2022-11-11T12:56:40;12.90;99.90
36594;DHT22;22603;47.900;8.146;2022-11-11T12:59:44;12.60;99.90
36594;DHT22;22603;47.900;8.146;2022-11-11T13:03:03;12.50;99.90
36594;DHT22;22603;47.900;8.146;2022-11-11T13:05:58;12.50;99.90
36594;DHT22;22603;47.900;8.146;2022-11-11T13:09:03;12.50;99.90
36594;DHT22;22603;47.900;8.146;2022-11-11T13:11:59;12.60;99.90
36594;DHT22;22603;47.900;8.146;2022-11-11T13:15:03;12.60;99.90
36594;DHT22;22603;47.900;8.146;2022-11-11T13:17:52;12.70;99.90
36594;DHT22;22603;47.900;8.146;2022-11-11T13:20:45;12.90;99.90
36594;DHT22;22603;47.900;8.146;2022-11-11T13:23:32;12.90;99.90
36594;DHT22;22603;47.900;8.146;2022-11-11T13:26:28;13.00;99.90
36594;DHT22;22603;47.900;8.146;2022-11-11T13:32:46;13.20;99.90
36594;DHT22;22603;47.900;8.146;2022-11-11T13:35:36;13.20;99.90
36594;DHT22;22603;47.900;8.146;2022-11-11T13:38:28;13.20;99.90
36594;DHT22;22603;47.900;8.146;2022-11-11T13:41:22;13.10;99.90
36594;DHT22;22603;47.900;8.146;2022-11-11T13:44:20;13.00;99.90
36594;DHT22;22603;47.900;8.146;2022-11-11T13:47:14;13.00;99.90
36594;DHT22;22603;47.900;8.146;2022-11-11T13:50:07;12.90;99.90
36594;DHT22;22603;47.900;8.146;2022-11-11T13:53:01;13.00;99.90
36594;DHT22;22603;47.900;8.146;2022-11-11T13:55:50;12.80;99.90
36594;DHT22;22603;47.900;8.146;2022-11-11T13:58:41;12.80;99.90
36594;DHT22;22603;47.900;8.146;2022-11-11T14:01:33;12.70;99.90
36594;DHT22;22603;47.900;8.146;2022-11-11T14:04:27;12.80;99.90
36594;DHT22;22603;47.900;8.146;2022-11-11T14:10:57;12.70;99.90
36594;DHT22;22603;47.900;8.146;2022-11-11T14:13:44;12.80;99.90
36594;DHT22;22603;47.900;8.146;2022-11-11T14:17:02;12.80;99.90
36594;DHT22;22603;47.900;8.146;2022-11-11T14:19:50;12.80;99.90
36594;DHT22;22603;47.900;8.146;2022-11-11T14:22:37;12.80;99.90
36594;DHT22;22603;47.900;8.146;2022-11-11T14:25:25;12.90;99.90
36594;DHT22;22603;47.900;8.146;2022-11-11T14:28:26;12.70;99.90
36594;DHT22;22603;47.900;8.146;2022-11-11T14:34:53;12.60;99.90
36594;DHT22;22603;47.900;8.146;2022-11-11T14:37:59;12.50;99.90
36594;DHT22;22603;47.900;8.146;2022-11-11T14:40:48;12.40;99.90
36594;DHT22;22603;47.900;8.146;2022-11-11T14:43:38;12.30;99.90
36594;DHT22;22603;47.900;8.146;2022-11-11T14:46:26;12.20;99.90
36594;DHT22;22603;47.900;8.146;2022-11-11T14:49:44;12.00;99.90
36594;DHT22;22603;47.900;8.146;2022-11-11T14:52:34;11.80;99.90
36594;DHT22;22603;47.900;8.146;2022-11-11T14:55:26;11.60;99.90
36594;DHT22;22603;47.900;8.146;2022-11-11T14:58:15;11.40;99.90
36594;DHT22;22603;47.900;8.146;2022-11-11T15:01:12;11.30;99.90
36594;DHT22;22603;47.900;8.146;2022-11-11T15:04:02;11.10;99.90
36594;DHT22;22603;47.900;8.146;2022-11-11T15:06:52;11.00;99.90
36594;DHT22;22603;47.900;8.146;2022-11-11T15:09:57;10.90;99.90
36594;DHT22;22603;47.900;8.146;2022-11-11T15:13:03;10.70;99.90
36594;DHT22;22603;47.900;8.146;2022-11-11T15:16:01;10.60;99.90
36594;DHT22;22603;47.900;8.146;2022-11-11T15:19:09;10.40;99.90
36594;DHT22;22603;47.900;8.146;2022-11-11T15:22:07;10.20;99.90
36594;DHT22;22603;47.900;8.146;2022-11-11T15:25:05;10.10;99.90
36594;DHT22;22603;47.900;8.146;2022-11-11T15:27:59;10.00;99.90
36594;DHT22;22603;47.900;8.146;2022-11-11T15:30:59;9.90;99.90
36594;DHT22;22603;47.900;8.146;2022-11-11T15:33:54;9.70;99.90
36594;DHT22;22603;47.900;8.146;2022-11-11T15:36:51;9.60;99.90
36594;DHT22;22603;47.900;8.146;2022-11-11T15:39:41;9.50;99.90
36594;DHT22;22603;47.900;8.146;2022-11-11T15:42:31;9.40;99.90
36594;DHT22;22603;47.900;8.146;2022-11-11T15:45:23;9.30;99.90
36594;DHT22;22603;47.900;8.146;2022-11-11T15:48:18;9.20;99.90
36594;DHT22;22603;47.900;8.146;2022-11-11T15:51:16;9.00;99.90
36594;DHT22;22603;47.900;8.146;2022-11-11T15:54:18;8.90;99.90
36594;DHT22;22603;47.900;8.146;2022-11-11T15:57:27;8.80;99.90
36594;DHT22;22603;47.900;8.146;2022-11-11T16:00:29;8.60;99.90
36594;DHT22;22603;47.900;8.146;2022-11-11T16:03:19;8.50;99.90
36594;DHT22;22603;47.900;8.146;2022-11-11T16:06:08;8.50;99.90
36594;DHT22;22603;47.900;8.146;2022-11-11T16:08:56;8.30;99.90
36594;DHT22;22603;47.900;8.146;2022-11-11T16:11:44;8.20;99.90
36594;DHT22;22603;47.900;8.146;2022-11-11T16:14:41;8.10;99.90
36594;DHT22;22603;47.900;8.146;2022-11-11T16:17:36;8.00;99.90
36594;DHT22;22603;47.900;8.146;2022-11-11T16:20:29;7.90;99.90
36594;DHT22;22603;47.900;8.146;2022-11-11T16:23:20;7.80;99.90
36594;DHT22;22603;47.900;8.146;2022-11-11T16:26:08;7.60;99.90
36594;DHT22;22603;47.900;8.146;2022-11-11T16:28:57;7.50;99.90
36594;DHT22;22603;47.900;8.146;2022-11-11T16:31:45;7.40;99.90
36594;DHT22;22603;47.900;8.146;2022-11-11T16:34:42;7.30;99.90
36594;DHT22;22603;47.900;8.146;2022-11-11T16:37:49;7.20;99.90
36594;DHT22;22603;47.900;8.146;2022-11-11T16:40:40;7.10;99.90
36594;DHT22;22603;47.900;8.146;2022-11-11T16:43:30;7.10;99.90
36594;DHT22;22603;47.900;8.146;2022-11-11T16:46:44;7.00;99.90
36594;DHT22;22603;47.900;8.146;2022-11-11T16:49:32;6.90;99.90
36594;DHT22;22603;47.900;8.146;2022-11-11T16:52:23;6.80;99.90
36594;DHT22;22603;47.900;8.146;2022-11-11T16:55:22;6.70;99.90
36594;DHT22;22603;47.900;8.146;2022-11-11T16:58:12;6.50;99.90
36594;DHT22;22603;47.900;8.146;2022-11-11T17:01:01;6.50;99.90
36594;DHT22;22603;47.900;8.146;2022-11-11T17:03:54;6.30;99.90
36594;DHT22;22603;47.900;8.146;2022-11-11T17:06:59;6.20;99.90
36594;DHT22;22603;47.900;8.146;2022-11-11T17:09:47;6.10;99.90
36594;DHT22;22603;47.900;8.146;2022-11-11T17:12:35;6.00;99.90
36594;DHT22;22603;47.900;8.146;2022-11-11T17:15:22;5.90;99.90
36594;DHT22;22603;47.900;8.146;2022-11-11T17:18:09;5.80;99.90
36594;DHT22;22603;47.900;8.146;2022-11-11T17:21:00;5.70;99.90
36594;DHT22;22603;47.900;8.146;2022-11-11T17:23:47;5.70;99.90
36594;DHT22;22603;47.900;8.146;2022-11-11T17:26:35;5.70;99.90
36594;DHT22;22603;47.900;8.146;2022-11-11T17:29:22;5.70;99.90
36594;DHT22;22603;47.900;8.146;2022-11-11T17:32:08;5.70;99.90
36594;DHT22;22603;47.900;8.146;2022-11-11T17:34:55;5.50;99.90
36594;DHT22;22603;47.900;8.146;2022-11-11T17:37:45;5.50;99.90
36594;DHT22;22603;47.900;8.146;2022-11-11T17:41:01;5.60;99.90
36594;DHT22;22603;47.900;8.146;2022-11-11T17:44:25;5.50;99.90
36594;DHT22;22603;47.900;8.146;2022-11-11T17:47:12;5.50;99.90
36594;DHT22;22603;47.900;8.146;2022-11-11T17:49:59;5.50;99.90
36594;DHT22;22603;47.900;8.146;2022-11-11T17:52:47;5.50;99.90
36594;DHT22;22603;47.900;8.146;2022-11-11T17:55:35;5.50;99.90
36594;DHT22;22603;47.900;8.146;2022-11-11T17:58:22;5.50;99.90
36594;DHT22;22603;47.900;8.146;2022-11-11T18:01:11;5.60;99.90
36594;DHT22;22603;47.900;8.146;2022-11-11T18:03:59;5.60;99.90
36594;DHT22;22603;47.900;8.146;2022-11-11T18:06:49;5.60;99.90
36594;DHT22;22603;47.900;8.146;2022-11-11T18:09:38;5.70;99.90
36594;DHT22;22603;47.900;8.146;2022-11-11T18:12:25;5.70;99.90
36594;DHT22;22603;47.900;8.146;2022-11-11T18:15:12;5.70;99.90
36594;DHT22;22603;47.900;8.146;2022-11-11T18:17:59;5.70;99.90
36594;DHT22;22603;47.900;8.146;2022-11-11T18:20:46;5.70;99.90
36594;DHT22;22603;47.900;8.146;2022-11-11T18:23:35;5.80;99.90
36594;DHT22;22603;47.900;8.146;2022-11-11T18:26:24;5.80;99.90
36594;DHT22;22603;47.900;8.146;2022-11-11T18:29:11;5.70;99.90
36594;DHT22;22603;47.900;8.146;2022-11-11T18:32:08;5.60;99.90
36594;DHT22;22603;47.900;8.146;2022-11-11T18:35:04;5.60;99.90
36594;DHT22;22603;47.900;8.146;2022-11-11T18:37:51;5.50;99.90
36594;DHT22;22603;47.900;8.146;2022-11-11T18:40:46;5.50;99.90